sensor_id;sensor_type;location;lat;lon;timestamp;P1;durP1;ratioP1;P2;durP2;ratioP2
48987;SDS011;34799;51.440;-2.534;2022-11-02T00:02:17;2.63;;;0.20;;
48987;SDS011;34799;51.440;-2.534;2022-11-02T00:04:45;4.32;;;0.30;;
48987;SDS011;34799;51.440;-2.534;2022-11-02T00:07:12;6.32;;;0.88;;
48987;SDS011;34799;51.440;-2.534;2022-11-02T00:09:40;2.05;;;0.20;;
48987;SDS011;34799;51.440;-2.534;2022-11-02T00:12:09;5.47;;;0.30;;
48987;SDS011;34799;51.440;-2.534;2022-11-02T00:14:36;9.38;;;1.20;;
48987;SDS011;34799;51.440;-2.534;2022-11-02T00:17:04;12.52;;;0.63;;
48987;SDS011;34799;51.440;-2.534;2022-11-02T00:19:31;11.50;;;0.70;;
48987;SDS011;34799;51.440;-2.534;2022-11-02T00:21:58;3.78;;;0.30;;
48987;SDS011;34799;51.440;-2.534;2022-11-02T00:24:28;5.60;;;0.73;;
48987;SDS011;34799;51.440;-2.534;2022-11-02T00:26:57;9.43;;;1.05;;
48987;SDS011;34799;51.440;-2.534;2022-11-02T00:29:25;7.60;;;0.73;;
48987;SDS011;34799;51.440;-2.534;2022-11-02T00:31:58;7.10;;;0.40;;
48987;SDS011;34799;51.440;-2.534;2022-11-02T00:34:25;5.45;;;0.35;;
48987;SDS011;34799;51.440;-2.534;2022-11-02T00:36:54;7.47;;;0.80;;
48987;SDS011;34799;51.440;-2.534;2022-11-02T00:39:21;9.98;;;0.68;;
48987;SDS011;34799;51.440;-2.534;2022-11-02T00:41:49;7.20;;;1.13;;
48987;SDS011;34799;51.440;-2.534;2022-11-02T00:44:16;10.13;;;1.30;;
48987;SDS011;34799;51.440;-2.534;2022-11-02T00:46:44;4.75;;;0.45;;
48987;SDS011;34799;51.440;-2.534;2022-11-02T00:49:12;10.35;;;0.60;;
48987;SDS011;34799;51.440;-2.534;2022-11-02T00:51:39;7.93;;;0.57;;
48987;SDS011;34799;51.440;-2.534;2022-11-02T00:54:08;7.32;;;0.75;;
48987;SDS011;34799;51.440;-2.534;2022-11-02T00:56:36;5.40;;;0.70;;
48987;SDS011;34799;51.440;-2.534;2022-11-02T00:59:05;12.25;;;0.93;;
48987;SDS011;34799;51.440;-2.534;2022-11-02T01:01:32;5.95;;;0.32;;
48987;SDS011;34799;51.440;-2.534;2022-11-02T01:04:00;7.13;;;0.40;;
48987;SDS011;34799;51.440;-2.534;2022-11-02T01:06:27;10.32;;;0.60;;
48987;SDS011;34799;51.440;-2.534;2022-11-02T01:08:56;9.63;;;0.50;;
48987;SDS011;34799;51.440;-2.534;2022-11-02T01:11:24;13.20;;;1.00;;
48987;SDS011;34799;51.440;-2.534;2022-11-02T01:13:51;5.95;;;0.32;;
48987;SDS011;34799;51.440;-2.534;2022-11-02T01:16:19;7.53;;;0.50;;
48987;SDS011;34799;51.440;-2.534;2022-11-02T01:18:52;7.97;;;0.50;;
48987;SDS011;34799;51.440;-2.534;2022-11-02T01:21:20;11.13;;;0.90;;
48987;SDS011;34799;51.440;-2.534;2022-11-02T01:23:50;11.05;;;1.13;;
48987;SDS011;34799;51.440;-2.534;2022-11-02T01:26:18;7.95;;;0.65;;
48987;SDS011;34799;51.440;-2.534;2022-11-02T01:28:45;5.50;;;0.38;;
48987;SDS011;34799;51.440;-2.534;2022-11-02T01:31:12;7.95;;;0.55;;
48987;SDS011;34799;51.440;-2.534;2022-11-02T01:33:42;5.47;;;0.95;;
48987;SDS011;34799;51.440;-2.534;2022-11-02T01:36:10;8.50;;;0.50;;
48987;SDS011;34799;51.440;-2.534;2022-11-02T01:38:39;3.03;;;0.30;;
48987;SDS011;34799;51.440;-2.534;2022-11-02T01:41:06;7.13;;;0.60;;
48987;SDS011;34799;51.440;-2.534;2022-11-02T01:43:34;9.13;;;1.08;;
48987;SDS011;34799;51.440;-2.534;2022-11-02T01:46:06;6.13;;;0.47;;
48987;SDS011;34799;51.440;-2.534;2022-11-02T01:51:12;8.60;;;0.75;;
48987;SDS011;34799;51.440;-2.534;2022-11-02T01:53:47;7.97;;;0.93;;
48987;SDS011;34799;51.440;-2.534;2022-11-02T01:56:17;11.20;;;0.68;;
48987;SDS011;34799;51.440;-2.534;2022-11-02T01:58:48;11.23;;;0.80;;
48987;SDS011;34799;51.440;-2.534;2022-11-02T02:01:21;11.13;;;0.60;;
48987;SDS011;34799;51.440;-2.534;2022-11-02T02:03:49;8.65;;;0.43;;
48987;SDS011;34799;51.440;-2.534;2022-11-02T02:06:17;8.57;;;0.73;;
48987;SDS011;34799;51.440;-2.534;2022-11-02T02:08:48;6.40;;;0.40;;
48987;SDS011;34799;51.440;-2.534;2022-11-02T02:11:29;7.43;;;0.45;;
48987;SDS011;34799;51.440;-2.534;2022-11-02T02:14:00;10.05;;;0.82;;
48987;SDS011;34799;51.440;-2.534;2022-11-02T02:17:23;6.55;;;0.50;;
48987;SDS011;34799;51.440;-2.534;2022-11-02T02:19:42;8.45;;;0.50;;
48987;SDS011;34799;51.440;-2.534;2022-11-02T02:30:11;10.93;;;0.90;;
48987;SDS011;34799;51.440;-2.534;2022-11-02T02:35:19;9.18;;;0.52;;
48987;SDS011;34799;51.440;-2.534;2022-11-02T02:37:52;12.70;;;1.30;;
48987;SDS011;34799;51.440;-2.534;2022-11-02T02:40:39;12.55;;;0.88;;
48987;SDS011;34799;51.440;-2.534;2022-11-02T02:43:37;6.05;;;0.57;;
48987;SDS011;34799;51.440;-2.534;2022-11-02T02:46:21;9.32;;;1.27;;
48987;SDS011;34799;51.440;-2.534;2022-11-02T02:48:51;7.72;;;0.60;;
48987;SDS011;34799;51.440;-2.534;2022-11-02T02:51:25;13.65;;;0.88;;
48987;SDS011;34799;51.440;-2.534;2022-11-02T02:54:14;4.88;;;0.50;;
48987;SDS011;34799;51.440;-2.534;2022-11-02T02:56:48;7.53;;;0.50;;
48987;SDS011;34799;51.440;-2.534;2022-11-02T02:59:24;6.97;;;0.60;;
48987;SDS011;34799;51.440;-2.534;2022-11-02T03:01:57;10.00;;;0.55;;
48987;SDS011;34799;51.440;-2.534;2022-11-02T03:04:24;8.98;;;0.75;;
48987;SDS011;34799;51.440;-2.534;2022-11-02T03:06:53;7.55;;;0.65;;
48987;SDS011;34799;51.440;-2.534;2022-11-02T03:09:44;8.38;;;1.95;;
48987;SDS011;34799;51.440;-2.534;2022-11-02T03:15:29;8.95;;;0.98;;
48987;SDS011;34799;51.440;-2.534;2022-11-02T03:18:15;3.92;;;0.40;;
48987;SDS011;34799;51.440;-2.534;2022-11-02T03:26:11;12.93;;;1.33;;
48987;SDS011;34799;51.440;-2.534;2022-11-02T03:28:59;6.85;;;0.50;;
48987;SDS011;34799;51.440;-2.534;2022-11-02T03:31:42;6.40;;;0.30;;
48987;SDS011;34799;51.440;-2.534;2022-11-02T03:39:12;6.20;;;0.30;;
48987;SDS011;34799;51.440;-2.534;2022-11-02T03:41:42;4.43;;;0.82;;
48987;SDS011;34799;51.440;-2.534;2022-11-02T03:44:14;8.15;;;0.50;;
48987;SDS011;34799;51.440;-2.534;2022-11-02T03:46:45;11.18;;;0.57;;
48987;SDS011;34799;51.440;-2.534;2022-11-02T03:49:15;14.25;;;0.60;;
48987;SDS011;34799;51.440;-2.534;2022-11-02T03:51:46;6.45;;;0.32;;
48987;SDS011;34799;51.440;-2.534;2022-11-02T03:54:35;9.10;;;1.30;;
48987;SDS011;34799;51.440;-2.534;2022-11-02T03:57:18;11.23;;;0.63;;
48987;SDS011;34799;51.440;-2.534;2022-11-02T03:59:47;7.72;;;1.23;;
48987;SDS011;34799;51.440;-2.534;2022-11-02T04:02:14;9.50;;;0.40;;
48987;SDS011;34799;51.440;-2.534;2022-11-02T04:04:47;8.80;;;1.20;;
48987;SDS011;34799;51.440;-2.534;2022-11-02T04:07:18;10.95;;;0.77;;
48987;SDS011;34799;51.440;-2.534;2022-11-02T04:09:48;9.13;;;0.40;;
48987;SDS011;34799;51.440;-2.534;2022-11-02T04:12:16;9.55;;;0.40;;
48987;SDS011;34799;51.440;-2.534;2022-11-02T04:15:02;4.78;;;0.52;;
48987;SDS011;34799;51.440;-2.534;2022-11-02T04:17:30;6.75;;;0.52;;
48987;SDS011;34799;51.440;-2.534;2022-11-02T04:20:17;8.10;;;0.70;;
48987;SDS011;34799;51.440;-2.534;2022-11-02T04:22:45;11.55;;;1.00;;
48987;SDS011;34799;51.440;-2.534;2022-11-02T04:25:33;8.52;;;0.88;;
48987;SDS011;34799;51.440;-2.534;2022-11-02T04:28:14;5.82;;;0.40;;
48987;SDS011;34799;51.440;-2.534;2022-11-02T04:30:48;3.70;;;0.55;;
48987;SDS011;34799;51.440;-2.534;2022-11-02T04:33:18;5.03;;;0.35;;
48987;SDS011;34799;51.440;-2.534;2022-11-02T04:36:08;5.35;;;0.50;;
48987;SDS011;34799;51.440;-2.534;2022-11-02T04:38:37;8.48;;;1.52;;
48987;SDS011;34799;51.440;-2.534;2022-11-02T04:41:22;4.35;;;1.02;;
48987;SDS011;34799;51.440;-2.534;2022-11-02T04:44:24;7.22;;;0.60;;
48987;SDS011;34799;51.440;-2.534;2022-11-02T04:47:13;10.10;;;0.95;;
48987;SDS011;34799;51.440;-2.534;2022-11-02T04:49:43;3.55;;;0.40;;
48987;SDS011;34799;51.440;-2.534;2022-11-02T04:52:14;5.03;;;0.38;;
48987;SDS011;34799;51.440;-2.534;2022-11-02T04:54:47;14.30;;;0.50;;
48987;SDS011;34799;51.440;-2.534;2022-11-02T04:57:14;7.30;;;0.30;;
48987;SDS011;34799;51.440;-2.534;2022-11-02T04:59:44;5.68;;;0.45;;
48987;SDS011;34799;51.440;-2.534;2022-11-02T05:02:12;5.13;;;0.20;;
48987;SDS011;34799;51.440;-2.534;2022-11-02T05:04:41;7.75;;;0.45;;
48987;SDS011;34799;51.440;-2.534;2022-11-02T05:07:10;6.85;;;0.43;;
48987;SDS011;34799;51.440;-2.534;2022-11-02T05:09:38;3.58;;;0.30;;
48987;SDS011;34799;51.440;-2.534;2022-11-02T05:12:08;8.63;;;0.35;;
48987;SDS011;34799;51.440;-2.534;2022-11-02T05:14:37;3.20;;;0.30;;
48987;SDS011;34799;51.440;-2.534;2022-11-02T05:17:06;4.78;;;0.30;;
48987;SDS011;34799;51.440;-2.534;2022-11-02T05:19:35;11.40;;;1.15;;
48987;SDS011;34799;51.440;-2.534;2022-11-02T05:22:04;7.90;;;1.02;;
48987;SDS011;34799;51.440;-2.534;2022-11-02T05:24:32;5.28;;;0.55;;
48987;SDS011;34799;51.440;-2.534;2022-11-02T05:27:00;8.38;;;0.52;;
48987;SDS011;34799;51.440;-2.534;2022-11-02T05:29:30;4.75;;;0.40;;
48987;SDS011;34799;51.440;-2.534;2022-11-02T05:31:58;9.63;;;0.60;;
48987;SDS011;34799;51.440;-2.534;2022-11-02T05:34:26;8.32;;;0.80;;
48987;SDS011;34799;51.440;-2.534;2022-11-02T05:36:53;10.75;;;0.60;;
48987;SDS011;34799;51.440;-2.534;2022-11-02T05:39:22;7.85;;;0.90;;
48987;SDS011;34799;51.440;-2.534;2022-11-02T05:41:49;8.95;;;1.52;;
48987;SDS011;34799;51.440;-2.534;2022-11-02T05:44:17;4.75;;;0.63;;
48987;SDS011;34799;51.440;-2.534;2022-11-02T05:46:44;7.07;;;0.30;;
48987;SDS011;34799;51.440;-2.534;2022-11-02T05:49:12;6.47;;;0.50;;
48987;SDS011;34799;51.440;-2.534;2022-11-02T05:51:42;5.18;;;0.63;;
48987;SDS011;34799;51.440;-2.534;2022-11-02T05:54:09;4.82;;;0.80;;
48987;SDS011;34799;51.440;-2.534;2022-11-02T05:56:36;6.95;;;1.30;;
48987;SDS011;34799;51.440;-2.534;2022-11-02T05:59:04;3.65;;;0.30;;
48987;SDS011;34799;51.440;-2.534;2022-11-02T06:01:32;8.90;;;0.70;;
48987;SDS011;34799;51.440;-2.534;2022-11-02T06:04:00;9.10;;;0.70;;
48987;SDS011;34799;51.440;-2.534;2022-11-02T06:06:27;12.02;;;1.00;;
48987;SDS011;34799;51.440;-2.534;2022-11-02T06:08:55;6.53;;;0.50;;
48987;SDS011;34799;51.440;-2.534;2022-11-02T06:11:24;5.75;;;0.50;;
48987;SDS011;34799;51.440;-2.534;2022-11-02T06:13:52;9.43;;;1.08;;
48987;SDS011;34799;51.440;-2.534;2022-11-02T06:16:19;7.95;;;0.85;;
48987;SDS011;34799;51.440;-2.534;2022-11-02T06:18:48;5.13;;;0.80;;
48987;SDS011;34799;51.440;-2.534;2022-11-02T06:21:17;2.80;;;0.55;;
48987;SDS011;34799;51.440;-2.534;2022-11-02T06:23:47;8.52;;;0.40;;
48987;SDS011;34799;51.440;-2.534;2022-11-02T06:26:17;9.93;;;0.55;;
48987;SDS011;34799;51.440;-2.534;2022-11-02T06:28:44;8.77;;;0.50;;
48987;SDS011;34799;51.440;-2.534;2022-11-02T06:31:12;10.30;;;0.40;;
48987;SDS011;34799;51.440;-2.534;2022-11-02T06:33:43;14.35;;;0.80;;
48987;SDS011;34799;51.440;-2.534;2022-11-02T06:36:11;7.93;;;0.47;;
48987;SDS011;34799;51.440;-2.534;2022-11-02T06:38:39;13.30;;;0.63;;
48987;SDS011;34799;51.440;-2.534;2022-11-02T06:41:07;10.63;;;0.73;;
48987;SDS011;34799;51.440;-2.534;2022-11-02T06:43:37;6.80;;;0.77;;
48987;SDS011;34799;51.440;-2.534;2022-11-02T06:46:05;17.42;;;1.17;;
48987;SDS011;34799;51.440;-2.534;2022-11-02T06:48:32;9.20;;;1.08;;
48987;SDS011;34799;51.440;-2.534;2022-11-02T06:51:01;14.48;;;1.15;;
48987;SDS011;34799;51.440;-2.534;2022-11-02T06:53:29;12.70;;;0.88;;
48987;SDS011;34799;51.440;-2.534;2022-11-02T06:55:57;11.40;;;0.88;;
48987;SDS011;34799;51.440;-2.534;2022-11-02T06:58:25;8.73;;;1.45;;
48987;SDS011;34799;51.440;-2.534;2022-11-02T07:01:00;13.23;;;1.15;;
48987;SDS011;34799;51.440;-2.534;2022-11-02T07:03:30;10.82;;;1.30;;
48987;SDS011;34799;51.440;-2.534;2022-11-02T07:05:59;13.23;;;1.50;;
48987;SDS011;34799;51.440;-2.534;2022-11-02T07:08:27;9.32;;;0.65;;
48987;SDS011;34799;51.440;-2.534;2022-11-02T07:10:56;11.77;;;0.98;;
48987;SDS011;34799;51.440;-2.534;2022-11-02T07:13:24;12.70;;;1.40;;
48987;SDS011;34799;51.440;-2.534;2022-11-02T07:15:52;20.35;;;1.40;;
48987;SDS011;34799;51.440;-2.534;2022-11-02T07:18:20;9.18;;;1.40;;
48987;SDS011;34799;51.440;-2.534;2022-11-02T07:20:49;4.32;;;0.68;;
48987;SDS011;34799;51.440;-2.534;2022-11-02T07:23:16;9.98;;;0.80;;
48987;SDS011;34799;51.440;-2.534;2022-11-02T07:25:43;10.50;;;1.10;;
48987;SDS011;34799;51.440;-2.534;2022-11-02T07:28:11;9.60;;;0.90;;
48987;SDS011;34799;51.440;-2.534;2022-11-02T07:30:38;18.77;;;1.52;;
48987;SDS011;34799;51.440;-2.534;2022-11-02T07:33:06;6.05;;;0.70;;
48987;SDS011;34799;51.440;-2.534;2022-11-02T07:35:34;5.50;;;0.40;;
48987;SDS011;34799;51.440;-2.534;2022-11-02T07:38:03;14.90;;;0.70;;
48987;SDS011;34799;51.440;-2.534;2022-11-02T07:40:34;13.40;;;1.85;;
48987;SDS011;34799;51.440;-2.534;2022-11-02T07:43:01;13.43;;;1.05;;
48987;SDS011;34799;51.440;-2.534;2022-11-02T07:45:36;11.70;;;1.48;;
48987;SDS011;34799;51.440;-2.534;2022-11-02T07:48:03;9.00;;;2.03;;
48987;SDS011;34799;51.440;-2.534;2022-11-02T07:50:31;16.52;;;1.15;;
48987;SDS011;34799;51.440;-2.534;2022-11-02T07:53:00;6.00;;;0.68;;
48987;SDS011;34799;51.440;-2.534;2022-11-02T07:55:28;12.80;;;1.30;;
48987;SDS011;34799;51.440;-2.534;2022-11-02T07:58:00;13.25;;;1.75;;
48987;SDS011;34799;51.440;-2.534;2022-11-02T08:00:31;9.85;;;1.33;;
48987;SDS011;34799;51.440;-2.534;2022-11-02T08:03:00;18.35;;;1.20;;
48987;SDS011;34799;51.440;-2.534;2022-11-02T08:05:30;12.45;;;1.45;;
48987;SDS011;34799;51.440;-2.534;2022-11-02T08:08:06;12.75;;;0.85;;
48987;SDS011;34799;51.440;-2.534;2022-11-02T08:10:41;14.07;;;1.60;;
48987;SDS011;34799;51.440;-2.534;2022-11-02T08:13:11;21.55;;;2.00;;
48987;SDS011;34799;51.440;-2.534;2022-11-02T08:15:39;8.43;;;1.05;;
48987;SDS011;34799;51.440;-2.534;2022-11-02T08:18:14;14.60;;;1.05;;
48987;SDS011;34799;51.440;-2.534;2022-11-02T08:20:42;13.13;;;0.88;;
48987;SDS011;34799;51.440;-2.534;2022-11-02T08:23:11;12.13;;;0.93;;
48987;SDS011;34799;51.440;-2.534;2022-11-02T08:25:41;17.92;;;1.95;;
48987;SDS011;34799;51.440;-2.534;2022-11-02T08:28:12;14.82;;;0.63;;
48987;SDS011;34799;51.440;-2.534;2022-11-02T08:30:43;14.82;;;1.35;;
48987;SDS011;34799;51.440;-2.534;2022-11-02T08:33:11;15.35;;;1.27;;
48987;SDS011;34799;51.440;-2.534;2022-11-02T08:35:42;13.68;;;1.45;;
48987;SDS011;34799;51.440;-2.534;2022-11-02T08:38:10;17.42;;;1.48;;
48987;SDS011;34799;51.440;-2.534;2022-11-02T08:40:38;14.13;;;1.20;;
48987;SDS011;34799;51.440;-2.534;2022-11-02T08:43:08;13.02;;;1.10;;
48987;SDS011;34799;51.440;-2.534;2022-11-02T08:45:39;16.25;;;0.88;;
48987;SDS011;34799;51.440;-2.534;2022-11-02T08:48:29;14.05;;;0.95;;
48987;SDS011;34799;51.440;-2.534;2022-11-02T08:50:57;10.88;;;1.08;;
48987;SDS011;34799;51.440;-2.534;2022-11-02T08:53:24;12.43;;;0.70;;
48987;SDS011;34799;51.440;-2.534;2022-11-02T08:55:55;9.57;;;0.85;;
48987;SDS011;34799;51.440;-2.534;2022-11-02T08:58:24;10.95;;;0.82;;
48987;SDS011;34799;51.440;-2.534;2022-11-02T09:00:51;9.90;;;0.80;;
48987;SDS011;34799;51.440;-2.534;2022-11-02T09:03:20;13.98;;;1.75;;
48987;SDS011;34799;51.440;-2.534;2022-11-02T09:05:54;12.98;;;0.75;;
48987;SDS011;34799;51.440;-2.534;2022-11-02T09:08:23;10.48;;;1.08;;
48987;SDS011;34799;51.440;-2.534;2022-11-02T09:10:50;12.73;;;1.55;;
48987;SDS011;34799;51.440;-2.534;2022-11-02T09:13:19;10.02;;;1.02;;
48987;SDS011;34799;51.440;-2.534;2022-11-02T09:15:51;13.68;;;0.95;;
48987;SDS011;34799;51.440;-2.534;2022-11-02T09:18:21;17.58;;;1.00;;
48987;SDS011;34799;51.440;-2.534;2022-11-02T09:20:49;15.13;;;1.25;;
48987;SDS011;34799;51.440;-2.534;2022-11-02T09:23:18;15.73;;;1.10;;
48987;SDS011;34799;51.440;-2.534;2022-11-02T09:25:48;11.38;;;1.30;;
48987;SDS011;34799;51.440;-2.534;2022-11-02T09:28:15;12.35;;;1.20;;
48987;SDS011;34799;51.440;-2.534;2022-11-02T09:30:43;11.73;;;1.20;;
48987;SDS011;34799;51.440;-2.534;2022-11-02T09:33:10;13.82;;;0.68;;
48987;SDS011;34799;51.440;-2.534;2022-11-02T09:35:41;9.32;;;0.70;;
48987;SDS011;34799;51.440;-2.534;2022-11-02T09:38:08;12.13;;;1.10;;
48987;SDS011;34799;51.440;-2.534;2022-11-02T09:40:37;11.07;;;0.70;;
48987;SDS011;34799;51.440;-2.534;2022-11-02T09:45:42;13.32;;;1.10;;
48987;SDS011;34799;51.440;-2.534;2022-11-02T09:48:17;12.55;;;1.92;;
48987;SDS011;34799;51.440;-2.534;2022-11-02T09:50:56;16.08;;;1.52;;
48987;SDS011;34799;51.440;-2.534;2022-11-02T09:53:28;10.52;;;1.63;;
48987;SDS011;34799;51.440;-2.534;2022-11-02T09:56:10;9.00;;;1.00;;
48987;SDS011;34799;51.440;-2.534;2022-11-02T09:58:40;16.73;;;1.60;;
48987;SDS011;34799;51.440;-2.534;2022-11-02T10:01:19;8.52;;;0.80;;
48987;SDS011;34799;51.440;-2.534;2022-11-02T10:03:58;10.05;;;1.10;;
48987;SDS011;34799;51.440;-2.534;2022-11-02T10:15:49;13.50;;;0.93;;
48987;SDS011;34799;51.440;-2.534;2022-11-02T10:18:30;9.95;;;0.95;;
48987;SDS011;34799;51.440;-2.534;2022-11-02T10:20:58;16.48;;;1.35;;
48987;SDS011;34799;51.440;-2.534;2022-11-02T10:26:04;18.23;;;1.58;;
48987;SDS011;34799;51.440;-2.534;2022-11-02T10:28:32;16.20;;;2.63;;
48987;SDS011;34799;51.440;-2.534;2022-11-02T10:31:02;12.63;;;1.75;;
48987;SDS011;34799;51.440;-2.534;2022-11-02T10:33:31;16.35;;;1.30;;
48987;SDS011;34799;51.440;-2.534;2022-11-02T10:36:06;19.10;;;2.08;;
48987;SDS011;34799;51.440;-2.534;2022-11-02T10:52:52;16.92;;;1.92;;
48987;SDS011;34799;51.440;-2.534;2022-11-02T10:55:26;18.38;;;1.15;;
48987;SDS011;34799;51.440;-2.534;2022-11-02T10:57:59;24.73;;;2.35;;
48987;SDS011;34799;51.440;-2.534;2022-11-02T11:00:31;19.58;;;1.45;;
48987;SDS011;34799;51.440;-2.534;2022-11-02T11:05:33;18.88;;;2.60;;
48987;SDS011;34799;51.440;-2.534;2022-11-02T11:08:24;13.73;;;1.83;;
48987;SDS011;34799;51.440;-2.534;2022-11-02T11:10:53;14.57;;;1.92;;
48987;SDS011;34799;51.440;-2.534;2022-11-02T11:13:21;16.60;;;1.50;;
48987;SDS011;34799;51.440;-2.534;2022-11-02T11:16:12;14.23;;;1.73;;
48987;SDS011;34799;51.440;-2.534;2022-11-02T11:18:39;17.63;;;2.33;;
48987;SDS011;34799;51.440;-2.534;2022-11-02T11:21:39;19.80;;;2.28;;
48987;SDS011;34799;51.440;-2.534;2022-11-02T11:27:00;15.55;;;1.70;;
48987;SDS011;34799;51.440;-2.534;2022-11-02T11:29:31;18.00;;;1.88;;
48987;SDS011;34799;51.440;-2.534;2022-11-02T11:31:59;11.27;;;1.20;;
48987;SDS011;34799;51.440;-2.534;2022-11-02T11:34:29;15.40;;;1.25;;
48987;SDS011;34799;51.440;-2.534;2022-11-02T11:37:08;15.23;;;1.95;;
48987;SDS011;34799;51.440;-2.534;2022-11-02T11:39:38;18.77;;;1.67;;
48987;SDS011;34799;51.440;-2.534;2022-11-02T11:42:12;17.58;;;2.30;;
48987;SDS011;34799;51.440;-2.534;2022-11-02T11:45:51;17.63;;;2.17;;
48987;SDS011;34799;51.440;-2.534;2022-11-02T11:47:50;15.05;;;2.13;;
48987;SDS011;34799;51.440;-2.534;2022-11-02T11:50:24;18.50;;;1.90;;
48987;SDS011;34799;51.440;-2.534;2022-11-02T11:53:14;10.65;;;1.33;;
48987;SDS011;34799;51.440;-2.534;2022-11-02T11:55:49;23.83;;;1.63;;
48987;SDS011;34799;51.440;-2.534;2022-11-02T11:58:25;16.30;;;1.58;;
48987;SDS011;34799;51.440;-2.534;2022-11-02T12:17:36;14.90;;;1.27;;
48987;SDS011;34799;51.440;-2.534;2022-11-02T12:22:55;22.42;;;1.77;;
48987;SDS011;34799;51.440;-2.534;2022-11-02T12:36:18;15.40;;;2.08;;
48987;SDS011;34799;51.440;-2.534;2022-11-02T12:39:12;18.08;;;1.17;;
48987;SDS011;34799;51.440;-2.534;2022-11-02T12:47:39;20.63;;;3.47;;
48987;SDS011;34799;51.440;-2.534;2022-11-02T12:53:41;9.48;;;1.13;;
48987;SDS011;34799;51.440;-2.534;2022-11-02T12:56:12;13.95;;;1.45;;
48987;SDS011;34799;51.440;-2.534;2022-11-02T12:58:42;14.27;;;1.85;;
48987;SDS011;34799;51.440;-2.534;2022-11-02T13:03:49;15.85;;;1.55;;
48987;SDS011;34799;51.440;-2.534;2022-11-02T13:06:23;16.90;;;1.50;;
48987;SDS011;34799;51.440;-2.534;2022-11-02T13:08:53;17.85;;;1.33;;
48987;SDS011;34799;51.440;-2.534;2022-11-02T13:11:31;15.35;;;1.42;;
48987;SDS011;34799;51.440;-2.534;2022-11-02T13:14:03;12.45;;;1.70;;
48987;SDS011;34799;51.440;-2.534;2022-11-02T13:16:40;14.63;;;1.77;;
48987;SDS011;34799;51.440;-2.534;2022-11-02T13:19:18;14.25;;;1.10;;
48987;SDS011;34799;51.440;-2.534;2022-11-02T13:21:51;15.63;;;2.03;;
48987;SDS011;34799;51.440;-2.534;2022-11-02T13:24:22;15.10;;;1.38;;
48987;SDS011;34799;51.440;-2.534;2022-11-02T13:26:53;15.18;;;1.83;;
48987;SDS011;34799;51.440;-2.534;2022-11-02T13:31:51;14.15;;;1.75;;
48987;SDS011;34799;51.440;-2.534;2022-11-02T13:34:44;16.40;;;2.15;;
48987;SDS011;34799;51.440;-2.534;2022-11-02T13:39:53;11.43;;;1.63;;
48987;SDS011;34799;51.440;-2.534;2022-11-02T13:50:33;12.52;;;1.63;;
48987;SDS011;34799;51.440;-2.534;2022-11-02T13:53:21;7.70;;;1.02;;
48987;SDS011;34799;51.440;-2.534;2022-11-02T13:56:06;11.20;;;1.52;;
48987;SDS011;34799;51.440;-2.534;2022-11-02T13:58:36;14.00;;;1.10;;
48987;SDS011;34799;51.440;-2.534;2022-11-02T14:01:09;12.55;;;1.25;;
48987;SDS011;34799;51.440;-2.534;2022-11-02T14:06:21;16.80;;;0.85;;
48987;SDS011;34799;51.440;-2.534;2022-11-02T14:08:55;17.35;;;2.00;;
48987;SDS011;34799;51.440;-2.534;2022-11-02T14:19:57;12.70;;;1.35;;
48987;SDS011;34799;51.440;-2.534;2022-11-02T14:22:16;17.90;;;2.20;;
48987;SDS011;34799;51.440;-2.534;2022-11-02T14:48:12;13.80;;;2.38;;
48987;SDS011;34799;51.440;-2.534;2022-11-02T14:50:42;10.45;;;1.27;;
48987;SDS011;34799;51.440;-2.534;2022-11-02T14:53:20;13.68;;;1.77;;
48987;SDS011;34799;51.440;-2.534;2022-11-02T14:55:53;11.23;;;2.17;;
48987;SDS011;34799;51.440;-2.534;2022-11-02T14:58:23;13.27;;;1.17;;
48987;SDS011;34799;51.440;-2.534;2022-11-02T15:05:58;27.20;;;1.83;;
48987;SDS011;34799;51.440;-2.534;2022-11-02T15:19:42;12.82;;;1.67;;
48987;SDS011;34799;51.440;-2.534;2022-11-02T15:24:59;14.35;;;1.92;;
48987;SDS011;34799;51.440;-2.534;2022-11-02T15:27:48;16.17;;;2.13;;
48987;SDS011;34799;51.440;-2.534;2022-11-02T15:30:18;14.18;;;1.70;;
48987;SDS011;34799;51.440;-2.534;2022-11-02T15:33:01;17.55;;;1.75;;
48987;SDS011;34799;51.440;-2.534;2022-11-02T15:35:30;19.58;;;2.17;;
48987;SDS011;34799;51.440;-2.534;2022-11-02T15:37:59;21.35;;;1.77;;
48987;SDS011;34799;51.440;-2.534;2022-11-02T15:40:46;15.35;;;2.45;;
48987;SDS011;34799;51.440;-2.534;2022-11-02T15:46:01;13.77;;;2.38;;
48987;SDS011;34799;51.440;-2.534;2022-11-02T15:48:59;16.08;;;2.78;;
48987;SDS011;34799;51.440;-2.534;2022-11-02T15:51:43;15.95;;;1.67;;
48987;SDS011;34799;51.440;-2.534;2022-11-02T16:02:20;16.13;;;2.53;;
48987;SDS011;34799;51.440;-2.534;2022-11-02T16:04:53;17.55;;;1.75;;
48987;SDS011;34799;51.440;-2.534;2022-11-02T16:07:21;30.40;;;2.13;;
48987;SDS011;34799;51.440;-2.534;2022-11-02T16:09:51;15.63;;;1.70;;
48987;SDS011;34799;51.440;-2.534;2022-11-02T16:12:20;16.20;;;2.13;;
48987;SDS011;34799;51.440;-2.534;2022-11-02T16:17:23;18.50;;;2.40;;
48987;SDS011;34799;51.440;-2.534;2022-11-02T16:20:07;15.02;;;1.63;;
48987;SDS011;34799;51.440;-2.534;2022-11-02T16:22:48;15.07;;;1.40;;
48987;SDS011;34799;51.440;-2.534;2022-11-02T16:27:55;10.77;;;1.20;;
48987;SDS011;34799;51.440;-2.534;2022-11-02T16:30:22;12.77;;;1.98;;
48987;SDS011;34799;51.440;-2.534;2022-11-02T16:32:51;13.05;;;1.13;;
48987;SDS011;34799;51.440;-2.534;2022-11-02T16:35:25;11.95;;;1.65;;
48987;SDS011;34799;51.440;-2.534;2022-11-02T16:37:52;19.50;;;2.00;;
48987;SDS011;34799;51.440;-2.534;2022-11-02T16:40:20;10.50;;;2.75;;
48987;SDS011;34799;51.440;-2.534;2022-11-02T16:42:50;13.75;;;1.55;;
48987;SDS011;34799;51.440;-2.534;2022-11-02T16:45:29;8.60;;;1.38;;
48987;SDS011;34799;51.440;-2.534;2022-11-02T16:47:57;12.15;;;1.38;;
48987;SDS011;34799;51.440;-2.534;2022-11-02T16:50:25;11.77;;;1.35;;
48987;SDS011;34799;51.440;-2.534;2022-11-02T16:55:28;8.63;;;0.90;;
48987;SDS011;34799;51.440;-2.534;2022-11-02T16:58:01;14.25;;;1.75;;
48987;SDS011;34799;51.440;-2.534;2022-11-02T17:00:30;11.57;;;1.63;;
48987;SDS011;34799;51.440;-2.534;2022-11-02T17:02:57;12.93;;;1.40;;
48987;SDS011;34799;51.440;-2.534;2022-11-02T17:05:33;15.10;;;1.83;;
48987;SDS011;34799;51.440;-2.534;2022-11-02T17:08:05;14.35;;;1.98;;
48987;SDS011;34799;51.440;-2.534;2022-11-02T17:10:36;16.38;;;1.60;;
48987;SDS011;34799;51.440;-2.534;2022-11-02T17:13:04;10.02;;;1.52;;
48987;SDS011;34799;51.440;-2.534;2022-11-02T17:15:44;11.57;;;1.60;;
48987;SDS011;34799;51.440;-2.534;2022-11-02T17:18:21;23.15;;;2.40;;
48987;SDS011;34799;51.440;-2.534;2022-11-02T17:28:44;24.05;;;2.78;;
48987;SDS011;34799;51.440;-2.534;2022-11-02T17:31:18;24.50;;;2.95;;
48987;SDS011;34799;51.440;-2.534;2022-11-02T17:33:47;20.75;;;3.05;;
48987;SDS011;34799;51.440;-2.534;2022-11-02T17:36:15;18.75;;;2.63;;
48987;SDS011;34799;51.440;-2.534;2022-11-02T17:38:43;18.33;;;2.75;;
48987;SDS011;34799;51.440;-2.534;2022-11-02T17:41:17;26.27;;;4.53;;
48987;SDS011;34799;51.440;-2.534;2022-11-02T17:44:04;18.00;;;2.53;;
48987;SDS011;34799;51.440;-2.534;2022-11-02T17:46:41;18.08;;;2.33;;
48987;SDS011;34799;51.440;-2.534;2022-11-02T17:49:08;14.98;;;2.13;;
48987;SDS011;34799;51.440;-2.534;2022-11-02T17:51:37;20.05;;;2.75;;
48987;SDS011;34799;51.440;-2.534;2022-11-02T17:54:05;17.00;;;2.10;;
48987;SDS011;34799;51.440;-2.534;2022-11-02T17:56:33;17.50;;;2.42;;
48987;SDS011;34799;51.440;-2.534;2022-11-02T17:59:00;18.83;;;2.88;;
48987;SDS011;34799;51.440;-2.534;2022-11-02T18:01:28;15.48;;;2.15;;
48987;SDS011;34799;51.440;-2.534;2022-11-02T18:03:56;18.40;;;2.72;;
48987;SDS011;34799;51.440;-2.534;2022-11-02T18:06:23;16.48;;;2.65;;
48987;SDS011;34799;51.440;-2.534;2022-11-02T18:08:51;18.77;;;1.95;;
48987;SDS011;34799;51.440;-2.534;2022-11-02T18:11:36;11.57;;;1.20;;